Time;durP1;ratioP1;P1;durP2;ratioP2;P2;SDS_P1;SDS_P2;PMS_P1;PMS_P2;Temp;Humidity;BMP_temperature;BMP_pressure;BME280_temperature;BME280_humidity;BME280_pressure;Samples;Min_cycle;Max_cycle;Signal;HPM_P1;HPM_P2
2022/01/29 00:00:08;;;;;;;27.65;8.75;;;6.70;99.90;;;;;;5014071;28;20455;-81
2022/01/29 00:02:34;;;;;;;26.17;10.25;;;6.80;99.90;;;;;;5031745;28;20500;-80
2022/01/29 00:04:59;;;;;;;26.98;8.98;;;6.80;99.90;;;;;;5031402;28;20045;-81
2022/01/29 00:07:25;;;;;;;25.98;9.70;;;6.80;99.90;;;;;;5013874;28;20107;-82
2022/01/29 00:09:51;;;;;;;21.98;9.43;;;6.80;99.90;;;;;;5013650;28;20148;-81
2022/01/29 00:12:17;;;;;;;22.67;8.75;;;7.50;99.90;;;;;;5031164;28;20092;-81
2022/01/29 00:14:43;;;;;;;29.50;9.25;;;7.50;99.90;;;;;;5012985;28;20081;-81
2022/01/29 00:17:11;;;;;;;30.48;9.65;;;6.90;99.90;;;;;;5031153;28;20045;-80
2022/01/29 00:19:40;;;;;;;30.92;10.00;;;7.80;99.90;;;;;;5031347;28;20053;-79
2022/01/29 00:22:06;;;;;;;18.95;7.32;;;6.90;99.90;;;;;;5012593;28;20057;-80
2022/01/29 00:24:32;;;;;;;30.00;10.90;;;6.90;99.90;;;;;;5030974;28;20056;-80
2022/01/29 00:26:58;;;;;;;23.35;10.27;;;6.90;99.90;;;;;;5031262;28;20045;-82
2022/01/29 00:29:24;;;;;;;27.30;11.18;;;6.90;99.90;;;;;;5012934;28;20566;-81
2022/01/29 00:31:50;;;;;;;28.55;8.73;;;6.80;99.90;;;;;;5030486;28;20071;-79
2022/01/29 00:34:15;;;;;;;25.45;10.55;;;6.90;99.90;;;;;;5013478;28;20049;-80
2022/01/29 00:36:41;;;;;;;21.33;9.45;;;8.00;99.90;;;;;;5013220;28;20129;-80
2022/01/29 00:39:07;;;;;;;23.98;10.57;;;6.90;99.90;;;;;;5030750;28;20057;-80
2022/01/29 00:41:32;;;;;;;22.92;8.65;;;6.90;99.90;;;;;;4996582;28;20053;-82
2022/01/29 00:43:58;;;;;;;26.95;11.50;;;7.80;99.90;;;;;;5012517;28;20061;-82
2022/01/29 00:46:24;;;;;;;25.30;10.00;;;7.60;99.90;;;;;;5030448;28;20053;-80
2022/01/29 00:48:49;;;;;;;33.55;11.77;;;6.90;99.90;;;;;;5012948;28;20045;-80
2022/01/29 00:51:15;;;;;;;21.95;9.27;;;6.90;99.90;;;;;;5012932;28;20057;-80
2022/01/29 00:53:41;;;;;;;31.73;11.27;;;6.90;99.90;;;;;;5030670;28;20481;-80
2022/01/29 00:56:09;;;;;;;31.65;11.32;;;7.70;99.90;;;;;;5012829;28;20121;-80
2022/01/29 00:58:34;;;;;;;28.50;11.27;;;7.80;99.90;;;;;;5030420;28;20408;-81
2022/01/29 01:01:00;;;;;;;29.60;10.90;;;7.50;99.90;;;;;;5030350;28;20042;-80
2022/01/29 01:03:26;;;;;;;29.13;10.52;;;7.00;99.90;;;;;;5012558;28;20451;-80
2022/01/29 01:05:52;;;;;;;36.95;10.90;;;7.70;99.90;;;;;;5030467;28;20049;-80
2022/01/29 01:08:18;;;;;;;29.00;12.00;;;7.00;99.90;;;;;;5030420;28;20068;-80
2022/01/29 01:10:43;;;;;;;32.30;11.88;;;7.00;99.90;;;;;;5030363;28;20049;-80
2022/01/29 01:13:09;;;;;;;31.58;12.13;;;7.00;99.90;;;;;;5012295;28;20154;-82
2022/01/29 01:15:35;;;;;;;31.95;12.40;;;7.00;99.90;;;;;;5012634;28;20513;-80
2022/01/29 01:18:00;;;;;;;33.20;13.00;;;7.00;99.90;;;;;;5030707;28;20111;-80
2022/01/29 01:20:26;;;;;;;43.55;11.60;;;7.00;99.90;;;;;;5030413;28;20044;-80
2022/01/29 01:22:52;;;;;;;30.85;11.35;;;7.00;99.90;;;;;;5030118;28;20115;-81
2022/01/29 01:25:18;;;;;;;32.95;12.50;;;7.00;99.90;;;;;;5012349;28;20081;-80
2022/01/29 01:27:43;;;;;;;32.97;12.23;;;8.00;99.90;;;;;;5029741;28;20088;-80
2022/01/29 01:30:10;;;;;;;32.10;11.55;;;7.10;99.90;;;;;;5011717;28;20057;-80
2022/01/29 01:32:37;;;;;;;34.47;11.55;;;7.10;99.90;;;;;;5029586;28;20089;-80
2022/01/29 01:35:18;;;;;;;36.20;10.35;;;7.10;99.90;;;;;;5012336;28;20042;-80
2022/01/29 01:37:50;;;;;;;36.10;12.45;;;7.10;99.90;;;;;;5030184;28;20076;-80
2022/01/29 01:40:17;;;;;;;32.13;11.82;;;7.10;99.90;;;;;;5011902;28;20087;-82
2022/01/29 01:42:42;;;;;;;33.42;12.15;;;7.10;99.90;;;;;;5029989;28;20045;-80
2022/01/29 01:45:08;;;;;;;30.27;11.70;;;7.20;99.90;;;;;;5030183;28;20091;-79
2022/01/29 01:47:34;;;;;;;42.88;13.43;;;7.20;99.90;;;;;;5012116;28;20056;-80
2022/01/29 01:50:00;;;;;;;30.20;10.82;;;7.20;99.90;;;;;;5030348;28;20440;-81
2022/01/29 01:52:26;;;;;;;30.63;9.07;;;7.20;99.90;;;;;;5011650;28;20128;-79
2022/01/29 01:54:51;;;;;;;32.65;11.63;;;7.30;99.90;;;;;;5011863;28;20045;-80
2022/01/29 01:57:17;;;;;;;36.38;12.93;;;7.30;99.90;;;;;;5011834;28;20042;-80
2022/01/29 01:59:44;;;;;;;34.25;13.10;;;7.30;99.90;;;;;;5012454;28;20089;-81
2022/01/29 02:02:10;;;;;;;22.65;9.45;;;7.80;99.90;;;;;;5011605;28;20053;-81
2022/01/29 02:04:36;;;;;;;35.47;12.90;;;7.30;99.90;;;;;;5011906;28;20084;-80
2022/01/29 02:07:02;;;;;;;36.03;13.13;;;8.30;99.90;;;;;;5029228;28;20489;-80
2022/01/29 02:09:30;;;;;;;32.20;12.57;;;7.30;99.90;;;;;;5029690;28;20042;-81
2022/01/29 02:11:57;;;;;;;30.05;12.55;;;7.30;99.90;;;;;;5029537;28;20091;-82
2022/01/29 02:14:27;;;;;;;39.88;13.07;;;7.60;99.90;;;;;;5029412;28;20192;-81
2022/01/29 02:16:53;;;;;;;26.75;10.48;;;7.30;99.90;;;;;;5012280;28;20049;-80
2022/01/29 02:19:19;;;;;;;27.35;11.57;;;7.30;99.90;;;;;;5030042;28;20390;-81
2022/01/29 02:21:45;;;;;;;34.50;11.00;;;8.00;99.90;;;;;;5029663;28;20060;-79
2022/01/29 02:24:10;;;;;;;42.28;13.90;;;7.30;99.90;;;;;;5029690;28;20058;-80
2022/01/29 02:26:36;;;;;;;35.95;12.15;;;7.30;99.90;;;;;;5011760;28;20049;-80
2022/01/29 02:29:02;;;;;;;39.45;14.07;;;7.40;99.90;;;;;;5029512;28;20048;-80
2022/01/29 02:31:28;;;;;;;33.47;12.75;;;7.30;99.90;;;;;;5029506;28;20176;-80
2022/01/29 02:33:54;;;;;;;32.63;12.18;;;7.30;99.90;;;;;;5029351;28;20081;-80
2022/01/29 02:36:19;;;;;;;33.03;11.75;;;7.40;99.90;;;;;;5011376;28;20046;-80
2022/01/29 02:38:45;;;;;;;34.03;12.95;;;7.40;99.90;;;;;;5011658;28;20111;-80
2022/01/29 02:41:11;;;;;;;36.08;13.95;;;8.30;99.90;;;;;;5029366;28;20499;-80
2022/01/29 02:43:44;;;;;;;32.05;12.98;;;7.40;99.90;;;;;;5029409;28;20045;-80
2022/01/29 02:48:46;;;;;;;31.23;12.70;;;7.80;99.90;;;;;;5032871;28;20061;-80
2022/01/29 02:51:11;;;;;;;33.70;12.50;;;7.40;99.90;;;;;;5032750;28;20072;-81
2022/01/29 02:53:37;;;;;;;39.40;12.75;;;7.40;99.90;;;;;;5032737;28;20382;-79
2022/01/29 02:56:03;;;;;;;31.90;12.45;;;7.40;99.90;;;;;;5032488;28;20481;-79
2022/01/29 02:58:29;;;;;;;23.73;10.57;;;7.50;99.90;;;;;;5014926;28;20126;-81
2022/01/29 03:00:55;;;;;;;34.28;13.82;;;7.50;99.90;;;;;;5015058;28;20065;-82
2022/01/29 03:03:20;;;;;;;38.47;14.35;;;7.80;99.90;;;;;;5014169;28;20065;-81
2022/01/29 03:05:46;;;;;;;27.13;10.98;;;7.50;99.90;;;;;;5032672;28;20102;-85
2022/01/29 03:08:12;;;;;;;32.08;12.07;;;7.60;99.90;;;;;;5032670;28;20075;-82
2022/01/29 03:10:38;;;;;;;31.73;12.05;;;7.60;99.90;;;;;;5032358;28;20128;-80
2022/01/29 03:13:04;;;;;;;36.13;11.45;;;7.60;99.90;;;;;;5032654;28;20045;-82
2022/01/29 03:15:30;;;;;;;28.25;10.48;;;7.60;99.90;;;;;;5014645;28;20762;-81
2022/01/29 03:17:55;;;;;;;23.83;10.50;;;7.70;99.90;;;;;;5032190;28;20049;-81
2022/01/29 03:20:22;;;;;;;27.00;11.02;;;7.70;99.90;;;;;;5032114;28;20125;-80
2022/01/29 03:22:47;;;;;;;26.38;10.88;;;7.80;99.90;;;;;;5014733;28;20085;-82
2022/01/29 03:25:13;;;;;;;19.75;8.07;;;8.40;99.90;;;;;;5014829;28;20522;-81
2022/01/29 03:27:39;;;;;;;22.08;10.00;;;7.80;99.90;;;;;;5032023;28;20496;-80
2022/01/29 03:30:07;;;;;;;29.30;11.73;;;7.80;99.90;;;;;;5032367;28;20079;-80
2022/01/29 03:32:33;;;;;;;29.10;10.98;;;7.80;99.90;;;;;;5032291;28;20065;-81
2022/01/29 03:34:58;;;;;;;28.13;11.52;;;7.80;99.90;;;;;;5032175;28;20052;-80
2022/01/29 03:37:24;;;;;;;29.42;11.85;;;8.90;99.90;;;;;;5014361;28;20412;-81
2022/01/29 03:39:51;;;;;;;28.60;10.68;;;7.80;99.90;;;;;;5014412;28;20517;-79
2022/01/29 03:42:16;;;;;;;23.73;9.70;;;8.80;99.90;;;;;;5031907;28;20694;-81
2022/01/29 03:44:42;;;;;;;27.20;10.77;;;8.40;99.90;;;;;;5032128;28;20423;-81
2022/01/29 03:47:08;;;;;;;25.15;11.05;;;8.60;99.90;;;;;;5014087;28;20041;-81
2022/01/29 03:49:34;;;;;;;28.65;11.05;;;7.90;99.90;;;;;;5013304;28;20049;-79
2022/01/29 03:52:00;;;;;;;27.40;10.90;;;7.90;99.90;;;;;;5031734;28;20092;-81
2022/01/29 03:54:25;;;;;;;24.40;10.23;;;8.60;99.90;;;;;;5031751;28;20041;-78
2022/01/29 03:56:51;;;;;;;27.50;12.20;;;8.80;99.90;;;;;;5030822;28;20045;-81
2022/01/29 03:59:17;;;;;;;21.73;10.52;;;8.90;99.90;;;;;;5013538;28;20052;-81
2022/01/29 04:01:42;;;;;;;29.65;11.10;;;7.90;99.90;;;;;;5014234;28;20049;-81
2022/01/29 04:04:08;;;;;;;33.58;11.23;;;7.90;99.90;;;;;;5031282;28;20038;-81
2022/01/29 04:06:34;;;;;;;23.40;11.85;;;8.00;99.90;;;;;;5014064;28;20053;-80
2022/01/29 04:09:04;;;;;;;24.83;10.52;;;8.40;99.90;;;;;;5013679;28;20061;-79
2022/01/29 04:11:30;;;;;;;27.42;11.07;;;8.00;99.90;;;;;;5031174;28;20104;-79
2022/01/29 04:13:55;;;;;;;22.42;10.73;;;8.00;99.90;;;;;;5031501;28;20085;-80
2022/01/29 04:16:21;;;;;;;30.40;12.95;;;8.30;99.90;;;;;;5031541;28;20073;-80
2022/01/29 04:18:47;;;;;;;29.10;10.50;;;8.30;99.90;;;;;;5030832;28;20056;-82
2022/01/29 04:21:13;;;;;;;28.77;11.43;;;8.00;99.90;;;;;;5031085;28;20059;-81
2022/01/29 04:23:38;;;;;;;26.67;9.82;;;9.10;99.90;;;;;;5013117;28;20394;-80
2022/01/29 04:26:05;;;;;;;31.33;11.95;;;9.10;99.90;;;;;;5031074;28;20044;-80
2022/01/29 04:28:37;;;;;;;30.98;12.73;;;8.10;99.90;;;;;;5030923;28;20107;-80
2022/01/29 04:31:18;;;;;;;24.10;9.98;;;8.10;99.90;;;;;;5030988;28;20065;-81
2022/01/29 04:33:44;;;;;;;28.42;13.07;;;8.10;99.90;;;;;;5013049;28;20120;-80
2022/01/29 04:36:10;;;;;;;29.67;11.65;;;8.10;99.90;;;;;;4996720;28;20051;-81
2022/01/29 04:38:36;;;;;;;23.08;9.48;;;8.10;99.90;;;;;;5013503;28;20132;-80
2022/01/29 04:41:04;;;;;;;18.15;7.88;;;8.60;99.90;;;;;;5030702;28;20469;-80
2022/01/29 04:43:34;;;;;;;24.38;11.57;;;8.10;99.90;;;;;;5031179;28;20081;-81
2022/01/29 04:46:01;;;;;;;24.42;11.20;;;8.90;99.90;;;;;;5013438;28;20523;-83
2022/01/29 04:48:27;;;;;;;34.35;11.43;;;9.10;99.90;;;;;;5031086;28;20045;-80
2022/01/29 04:50:53;;;;;;;23.77;9.43;;;9.10;99.90;;;;;;5030529;28;20053;-81
2022/01/29 04:53:19;;;;;;;22.52;11.73;;;8.60;99.90;;;;;;5012927;28;20095;-82
2022/01/29 04:55:45;;;;;;;23.42;10.98;;;8.20;99.90;;;;;;5030531;28;20049;-79
2022/01/29 04:58:11;;;;;;;25.00;11.63;;;9.00;99.90;;;;;;5030585;28;20480;-80
2022/01/29 05:00:36;;;;;;;22.52;12.27;;;8.20;99.90;;;;;;4996500;28;20061;-81
2022/01/29 05:03:11;;;;;;;25.00;10.32;;;9.00;99.90;;;;;;5012756;28;20085;-80
2022/01/29 05:05:37;;;;;;;19.88;9.55;;;8.20;99.90;;;;;;5030027;28;20049;-80
2022/01/29 05:08:03;;;;;;;23.00;10.48;;;8.20;99.90;;;;;;5030344;28;20044;-80
2022/01/29 05:10:30;;;;;;;24.40;11.80;;;8.30;99.90;;;;;;5030341;28;20084;-80
2022/01/29 05:13:05;;;;;;;21.67;10.63;;;8.80;99.90;;;;;;5030637;28;20080;-81
2022/01/29 05:15:47;;;;;;;21.92;9.90;;;8.20;99.90;;;;;;5030743;28;20059;-80
2022/01/29 05:29:12;;;;;;;21.30;10.57;;;8.90;99.90;;;;;;5012610;28;20088;-80
2022/01/29 05:31:38;;;;;;;24.10;11.50;;;8.40;99.90;;;;;;5030317;28;20050;-80
2022/01/29 05:34:04;;;;;;;23.42;10.15;;;8.40;99.90;;;;;;5012342;28;20057;-80
2022/01/29 05:36:30;;;;;;;23.80;11.32;;;9.20;99.90;;;;;;5030315;28;20470;-81
2022/01/29 05:38:55;;;;;;;27.65;12.63;;;8.50;99.90;;;;;;5030118;28;20060;-80
2022/01/29 05:41:21;;;;;;;25.25;10.75;;;8.40;99.90;;;;;;5030161;28;20046;-81
2022/01/29 05:43:47;;;;;;;17.17;9.63;;;9.20;99.90;;;;;;5030278;28;20120;-81
2022/01/29 05:46:14;;;;;;;24.83;8.68;;;8.50;99.90;;;;;;5030010;28;20053;-80
2022/01/29 05:48:40;;;;;;;22.27;8.55;;;8.50;99.90;;;;;;5029998;28;20572;-80
2022/01/29 05:51:07;;;;;;;21.33;11.20;;;8.50;99.90;;;;;;5029445;28;20047;-79
2022/01/29 05:53:32;;;;;;;22.25;10.38;;;8.40;99.90;;;;;;5012035;28;20057;-79
2022/01/29 05:55:58;;;;;;;26.58;10.85;;;9.20;99.90;;;;;;5029983;28;20048;-81
2022/01/29 05:58:24;;;;;;;23.40;11.50;;;8.40;99.90;;;;;;5029916;28;20044;-80
2022/01/29 06:00:50;;;;;;;26.27;11.20;;;8.40;99.90;;;;;;5029696;28;20056;-81
2022/01/29 06:03:15;;;;;;;20.80;11.10;;;8.40;99.90;;;;;;5012498;28;20120;-79
2022/01/29 06:05:41;;;;;;;24.13;10.60;;;8.40;99.90;;;;;;5029909;28;20508;-82
2022/01/29 06:08:07;;;;;;;26.65;10.00;;;8.40;99.90;;;;;;5029538;28;20073;-80
2022/01/29 06:10:33;;;;;;;33.47;11.50;;;8.40;99.90;;;;;;5012068;28;20060;-81
2022/01/29 06:13:00;;;;;;;23.88;10.88;;;8.40;99.90;;;;;;5011750;28;20050;-81
2022/01/29 06:15:26;;;;;;;25.55;11.30;;;8.40;99.90;;;;;;5011815;28;20194;-81
2022/01/29 06:17:52;;;;;;;21.17;10.93;;;8.40;99.90;;;;;;5029689;28;20495;-81
2022/01/29 06:20:18;;;;;;;23.00;9.65;;;9.20;99.90;;;;;;5012086;28;20445;-80
2022/01/29 06:22:43;;;;;;;20.23;10.30;;;8.50;99.90;;;;;;5033283;28;20068;-80
2022/01/29 06:25:09;;;;;;;20.55;10.65;;;8.50;99.90;;;;;;5015431;28;20057;-80
2022/01/29 06:27:35;;;;;;;18.42;9.68;;;8.80;99.90;;;;;;5015885;28;20151;-81
2022/01/29 06:30:02;;;;;;;28.10;10.93;;;8.80;99.90;;;;;;5033239;28;20588;-79
2022/01/29 06:32:27;;;;;;;21.52;10.07;;;9.10;99.90;;;;;;5033151;28;20065;-82
2022/01/29 06:34:53;;;;;;;23.83;10.13;;;8.50;99.90;;;;;;5033284;28;20061;-80
2022/01/29 06:37:19;;;;;;;26.08;10.02;;;8.50;99.90;;;;;;5015365;28;20057;-81
2022/01/29 06:39:44;;;;;;;22.00;10.63;;;9.50;99.90;;;;;;5015408;28;20049;-80
2022/01/29 06:42:10;;;;;;;20.02;9.50;;;8.50;99.90;;;;;;5015416;28;20049;-80
2022/01/29 06:44:35;;;;;;;21.08;10.55;;;9.20;99.90;;;;;;5032992;28;20049;-81
2022/01/29 06:47:01;;;;;;;26.52;10.90;;;8.50;99.90;;;;;;5032767;28;20037;-81
2022/01/29 06:49:27;;;;;;;24.08;10.35;;;8.50;99.90;;;;;;4995123;28;20481;-80
2022/01/29 06:51:53;;;;;;;19.55;10.43;;;8.90;99.90;;;;;;4995186;28;20085;-79
2022/01/29 06:54:19;;;;;;;19.75;11.15;;;9.30;99.90;;;;;;5013352;28;20050;-80
2022/01/29 06:56:45;;;;;;;20.10;9.52;;;8.40;99.90;;;;;;4995460;28;20054;-80
2022/01/29 06:59:11;;;;;;;27.70;10.32;;;8.70;99.90;;;;;;4995323;28;20053;-81
2022/01/29 07:01:37;;;;;;;18.73;11.00;;;8.50;99.90;;;;;;4995078;28;20560;-79
2022/01/29 07:04:03;;;;;;;19.30;9.23;;;9.40;99.90;;;;;;5013209;28;20450;-80
2022/01/29 07:06:28;;;;;;;17.58;9.13;;;8.50;99.90;;;;;;5013161;28;20078;-81
2022/01/29 07:08:54;;;;;;;19.42;9.32;;;8.50;99.90;;;;;;5012809;28;20050;-82
2022/01/29 07:11:22;;;;;;;17.20;8.43;;;8.50;99.90;;;;;;4995264;28;20092;-82
2022/01/29 07:13:49;;;;;;;21.90;9.95;;;8.50;99.90;;;;;;5012856;28;20460;-81
2022/01/29 07:16:15;;;;;;;17.40;10.00;;;8.50;99.90;;;;;;5012767;28;20420;-81
2022/01/29 07:18:40;;;;;;;21.98;9.73;;;8.50;99.90;;;;;;5028033;28;20128;-80
2022/01/29 07:21:06;;;;;;;18.75;8.77;;;8.70;99.90;;;;;;5032451;28;20041;-81
2022/01/29 07:23:32;;;;;;;21.77;9.18;;;8.50;99.90;;;;;;5032304;28;20052;-79
2022/01/29 07:25:57;;;;;;;18.92;8.82;;;8.50;99.90;;;;;;5032309;28;20049;-81
2022/01/29 07:28:23;;;;;;;23.80;9.15;;;8.40;99.90;;;;;;5013546;28;20042;-81
2022/01/29 07:30:49;;;;;;;16.23;8.68;;;8.60;99.90;;;;;;5031734;28;20492;-80
2022/01/29 07:33:14;;;;;;;17.65;7.65;;;8.50;99.90;;;;;;5013340;28;20807;-84
2022/01/29 07:35:40;;;;;;;20.08;7.65;;;8.60;99.90;;;;;;5032324;28;20144;-81
2022/01/29 07:38:06;;;;;;;18.10;8.88;;;8.60;99.90;;;;;;5032044;28;20128;-81
2022/01/29 07:40:31;;;;;;;15.93;9.18;;;9.10;99.90;;;;;;5032152;28;20098;-79
2022/01/29 07:42:57;;;;;;;17.75;8.98;;;9.40;99.90;;;;;;5031960;28;20443;-80
2022/01/29 07:45:22;;;;;;;14.77;7.35;;;9.20;99.90;;;;;;5013570;28;20122;-81
2022/01/29 07:47:48;;;;;;;22.27;8.35;;;8.60;99.90;;;;;;5032294;28;20041;-81
2022/01/29 07:50:14;;;;;;;11.13;5.47;;;8.60;99.90;;;;;;4997821;28;20167;-81
2022/01/29 07:52:39;;;;;;;21.60;8.15;;;8.60;99.90;;;;;;5013818;28;20124;-81
2022/01/29 07:55:07;;;;;;;20.60;8.30;;;9.40;99.90;;;;;;5031847;28;20124;-80
2022/01/29 07:57:33;;;;;;;23.05;8.50;;;8.60;99.90;;;;;;5031931;28;20416;-81
2022/01/29 07:59:58;;;;;;;14.95;7.43;;;9.10;99.90;;;;;;5032092;28;20044;-80
2022/01/29 08:02:26;;;;;;;16.77;6.95;;;9.10;99.90;;;;;;5031756;28;20045;-82
2022/01/29 08:04:52;;;;;;;18.77;8.43;;;9.30;99.90;;;;;;5030909;28;20806;-81
2022/01/29 08:07:19;;;;;;;15.82;6.57;;;8.70;99.90;;;;;;5013420;28;20053;-82
2022/01/29 08:09:45;;;;;;;18.65;7.97;;;8.60;99.90;;;;;;5031406;28;20041;-81
2022/01/29 08:12:11;;;;;;;19.40;8.27;;;9.60;99.90;;;;;;5031176;28;20053;-81
2022/01/29 08:14:36;;;;;;;16.90;7.68;;;8.70;99.90;;;;;;5013282;28;20367;-82
2022/01/29 08:17:02;;;;;;;15.13;7.20;;;8.70;99.90;;;;;;5013649;28;20085;-83
2022/01/29 08:19:28;;;;;;;14.85;7.55;;;8.70;99.90;;;;;;5012561;28;20462;-80
2022/01/29 08:21:54;;;;;;;21.73;7.60;;;8.70;99.90;;;;;;4996713;28;20045;-81
2022/01/29 08:24:19;;;;;;;23.85;7.80;;;8.60;99.90;;;;;;5031438;28;20400;-82
2022/01/29 08:26:45;;;;;;;15.85;7.75;;;9.00;99.90;;;;;;5013008;28;20597;-81
2022/01/29 08:29:10;;;;;;;19.02;8.00;;;9.40;99.90;;;;;;5013552;28;20057;-81
2022/01/29 08:31:36;;;;;;;19.40;7.35;;;9.20;99.90;;;;;;4996613;28;20045;-83
2022/01/29 08:34:02;;;;;;;13.95;6.10;;;9.50;99.90;;;;;;5013142;28;20064;-83
2022/01/29 08:36:27;;;;;;;18.52;6.70;;;9.40;99.90;;;;;;5013357;28;20055;-81
2022/01/29 08:38:53;;;;;;;15.00;5.70;;;8.60;99.90;;;;;;5013176;28;20064;-82
2022/01/29 08:41:18;;;;;;;14.25;5.72;;;8.90;99.90;;;;;;5012800;28;20046;-82
2022/01/29 08:43:44;;;;;;;15.57;5.63;;;9.30;99.90;;;;;;5012577;28;20053;-82
2022/01/29 08:46:10;;;;;;;14.45;6.60;;;8.60;99.90;;;;;;5013052;28;20076;-82
2022/01/29 08:48:35;;;;;;;15.93;5.55;;;8.60;99.90;;;;;;5030785;28;20057;-82
2022/01/29 08:51:01;;;;;;;17.38;6.30;;;8.60;99.90;;;;;;5030615;28;20111;-82
2022/01/29 08:53:27;;;;;;;15.88;5.47;;;9.60;99.90;;;;;;5012790;28;20072;-82
2022/01/29 08:55:53;;;;;;;15.63;5.40;;;9.40;99.90;;;;;;5030705;28;20049;-82
2022/01/29 08:58:18;;;;;;;14.50;4.90;;;8.70;99.90;;;;;;5012734;28;20085;-82
2022/01/29 09:00:45;;;;;;;13.73;4.93;;;9.00;99.90;;;;;;5030597;28;20476;-82
2022/01/29 09:03:14;;;;;;;10.25;4.40;;;8.80;99.90;;;;;;5013117;28;20080;-81
2022/01/29 09:05:41;;;;;;;16.75;5.60;;;8.80;99.90;;;;;;5030474;28;20049;-82
2022/01/29 09:08:06;;;;;;;12.15;4.63;;;8.90;99.90;;;;;;5012942;28;20047;-82
2022/01/29 09:10:32;;;;;;;10.88;4.43;;;9.70;99.90;;;;;;5012389;28;20346;-83
2022/01/29 09:12:58;;;;;;;11.85;3.47;;;9.40;99.90;;;;;;5030236;28;20687;-81
2022/01/29 09:15:25;;;;;;;13.38;4.40;;;9.80;99.90;;;;;;5030364;28;20084;-82
2022/01/29 09:17:50;;;;;;;10.05;3.78;;;9.00;99.90;;;;;;5030481;28;20057;-82
2022/01/29 09:20:16;;;;;;;8.75;3.58;;;9.00;99.90;;;;;;5012479;28;20061;-82
2022/01/29 09:22:42;;;;;;;10.02;3.38;;;9.40;99.90;;;;;;5030059;28;20045;-84
2022/01/29 09:25:08;;;;;;;17.77;4.38;;;9.90;99.90;;;;;;5030111;28;20071;-83
2022/01/29 09:27:34;;;;;;;12.63;3.92;;;9.10;99.90;;;;;;4996198;28;20132;-83
2022/01/29 09:30:00;;;;;;;10.80;3.75;;;9.90;99.90;;;;;;5030204;28;20060;-83
2022/01/29 09:32:26;;;;;;;12.57;4.13;;;10.00;99.90;;;;;;5029675;28;20061;-81
2022/01/29 09:34:51;;;;;;;14.23;3.92;;;9.20;99.90;;;;;;5030023;28;20077;-81
2022/01/29 09:37:17;;;;;;;9.00;2.90;;;10.00;99.90;;;;;;5011868;28;20096;-81
2022/01/29 09:39:43;;;;;;;9.57;3.42;;;9.20;99.90;;;;;;5030436;28;20420;-82
2022/01/29 09:42:10;;;;;;;13.40;3.83;;;9.30;99.90;;;;;;5030258;28;20044;-82
2022/01/29 09:44:35;;;;;;;14.45;3.58;;;9.30;99.90;;;;;;5030098;28;20386;-83
2022/01/29 09:47:05;;;;;;;9.27;2.85;;;9.30;99.90;;;;;;5011614;28;20053;-79
2022/01/29 09:49:32;;;;;;;10.35;2.80;;;9.30;99.90;;;;;;5029749;28;20500;-81
2022/01/29 09:51:58;;;;;;;9.27;3.25;;;10.00;99.90;;;;;;5029733;28;20045;-80
2022/01/29 09:54:24;;;;;;;13.43;4.05;;;9.50;99.90;;;;;;4979254;28;20057;-81
2022/01/29 09:56:50;;;;;;;9.93;2.60;;;10.00;99.90;;;;;;5032593;28;20402;-80
2022/01/29 09:59:15;;;;;;;10.55;2.60;;;10.30;99.90;;;;;;5034000;28;20080;-79
2022/01/29 10:01:41;;;;;;;10.60;3.47;;;9.40;99.90;;;;;;5034037;28;20049;-80
2022/01/29 10:04:07;;;;;;;8.90;3.00;;;9.40;99.90;;;;;;5015720;28;20062;-81
2022/01/29 10:06:34;;;;;;;7.72;2.83;;;9.40;99.90;;;;;;5033764;28;20045;-81
2022/01/29 10:09:05;;;;;;;14.07;2.53;;;9.50;99.90;;;;;;5033282;28;20473;-80
2022/01/29 10:11:31;;;;;;;10.50;2.75;;;9.40;99.90;;;;;;5033725;28;20092;-79
2022/01/29 10:14:02;;;;;;;10.25;2.70;;;9.40;99.90;;;;;;5033705;28;20041;-81
2022/01/29 10:16:30;;;;;;;15.23;3.00;;;9.90;99.90;;;;;;5033455;28;20491;-81
2022/01/29 10:19:10;;;;;;;11.43;3.10;;;9.90;99.90;;;;;;5033428;28;20103;-80
2022/01/29 10:21:46;;;;;;;9.88;2.08;;;9.60;99.90;;;;;;5015817;28;20045;-81
2022/01/29 10:24:14;;;;;;;10.82;1.70;;;9.60;99.90;;;;;;5033424;28;20045;-80
2022/01/29 10:26:46;;;;;;;10.00;2.47;;;10.30;99.90;;;;;;5033436;28;20392;-79
2022/01/29 10:29:19;;;;;;;10.43;2.08;;;9.70;99.90;;;;;;5016058;28;20064;-81
2022/01/29 10:31:47;;;;;;;13.60;2.10;;;9.70;99.90;;;;;;5032458;28;20050;-82
2022/01/29 10:34:36;;;;;;;13.23;2.85;;;9.70;99.90;;;;;;5015447;28;20146;-80
2022/01/29 10:37:26;;;;;;;12.05;1.67;;;9.70;99.90;;;;;;5014508;28;20061;-81
2022/01/29 10:39:57;;;;;;;7.63;1.52;;;9.80;99.90;;;;;;5015637;28;20091;-80
2022/01/29 10:42:35;;;;;;;9.68;2.55;;;9.80;99.90;;;;;;5032968;28;20053;-78
2022/01/29 10:45:04;;;;;;;8.80;2.25;;;9.80;99.90;;;;;;5033412;28;20109;-81
2022/01/29 10:47:31;;;;;;;11.68;1.83;;;9.80;99.90;;;;;;5032903;28;20057;-80
2022/01/29 10:50:02;;;;;;;5.68;2.03;;;9.90;99.90;;;;;;5015466;28;20071;-81
2022/01/29 10:52:32;;;;;;;9.88;1.70;;;9.90;99.90;;;;;;5015060;28;20097;-81
2022/01/29 10:55:06;;;;;;;9.75;2.13;;;9.90;99.90;;;;;;5033178;28;20060;-80
2022/01/29 10:57:35;;;;;;;12.40;1.42;;;9.80;99.90;;;;;;5014872;28;20041;-80
2022/01/29 11:00:03;;;;;;;7.25;2.03;;;9.90;99.90;;;;;;5032880;28;20522;-81
2022/01/29 11:02:30;;;;;;;5.95;1.77;;;9.90;99.90;;;;;;5033325;28;20112;-81
2022/01/29 11:04:57;;;;;;;8.95;1.98;;;9.90;99.90;;;;;;5032896;28;20053;-80
2022/01/29 11:07:28;;;;;;;6.13;1.33;;;10.00;99.90;;;;;;5014099;28;20081;-82
2022/01/29 11:09:54;;;;;;;5.50;1.45;;;10.00;99.90;;;;;;5032811;28;20552;-85
2022/01/29 11:12:24;;;;;;;5.95;1.42;;;9.90;99.90;;;;;;5032718;28;20128;-84
2022/01/29 11:14:53;;;;;;;6.18;1.50;;;10.00;99.90;;;;;;5032663;28;20057;-79
2022/01/29 11:17:19;;;;;;;8.13;1.73;;;10.30;99.90;;;;;;5032708;28;20212;-80
2022/01/29 11:19:46;;;;;;;6.18;1.45;;;10.50;99.90;;;;;;5032448;28;20081;-79
2022/01/29 11:22:13;;;;;;;8.07;1.45;;;10.30;99.90;;;;;;5032339;28;20131;-79
2022/01/29 11:24:42;;;;;;;11.88;1.80;;;10.90;99.90;;;;;;5014726;28;20052;-80
2022/01/29 11:27:28;;;;;;;10.60;1.90;;;10.00;99.90;;;;;;5032482;28;20045;-78
2022/01/29 11:30:08;;;;;;;8.65;2.30;;;10.00;99.90;;;;;;5032252;28;20512;-78
2022/01/29 11:32:35;;;;;;;7.18;1.70;;;10.00;99.90;;;;;;5031940;28;20108;-80
2022/01/29 11:35:10;;;;;;;3.13;1.20;;;10.00;99.90;;;;;;4998281;28;20057;-82
2022/01/29 11:37:37;;;;;;;9.98;1.52;;;10.80;99.90;;;;;;4997871;28;20489;-82
2022/01/29 11:40:32;;;;;;;12.77;2.42;;;10.30;99.90;;;;;;5031952;28;20065;-81
2022/01/29 11:43:13;;;;;;;12.23;1.42;;;10.00;99.90;;;;;;5029934;28;20104;-80
2022/01/29 11:46:07;;;;;;;11.50;1.70;;;10.00;99.90;;;;;;5031965;28;20085;-80
2022/01/29 11:48:39;;;;;;;7.47;1.40;;;10.10;99.90;;;;;;5031969;28;20298;-82
2022/01/29 11:51:07;;;;;;;10.05;1.48;;;10.70;99.90;;;;;;5031987;28;20049;-78
2022/01/29 11:53:45;;;;;;;4.50;1.40;;;10.30;99.90;;;;;;5013937;28;20042;-84
2022/01/29 11:56:34;;;;;;;9.02;1.30;;;10.50;99.90;;;;;;5013937;28;20045;-84
2022/01/29 11:59:23;;;;;;;8.00;1.33;;;10.20;99.90;;;;;;5014289;28;20076;-81
2022/01/29 12:01:53;;;;;;;9.40;1.27;;;10.20;99.90;;;;;;5031847;28;20041;-82
2022/01/29 12:04:23;;;;;;;9.88;1.70;;;10.20;99.90;;;;;;5031669;28;20052;-82
2022/01/29 12:07:16;;;;;;;5.22;1.30;;;10.20;99.90;;;;;;5031230;28;20481;-80
2022/01/29 12:09:52;;;;;;;8.18;1.42;;;10.30;99.90;;;;;;5031604;28;20042;-84
2022/01/29 12:12:27;;;;;;;10.25;1.27;;;10.80;99.90;;;;;;5031621;28;20068;-81
2022/01/29 12:15:11;;;;;;;5.75;1.70;;;10.40;99.90;;;;;;5012806;28;20096;-81
2022/01/29 12:17:43;;;;;;;5.90;1.70;;;10.40;99.90;;;;;;5003030;28;20049;-81
2022/01/29 12:20:12;;;;;;;9.15;1.48;;;10.50;99.90;;;;;;5031061;28;20037;-81
2022/01/29 12:22:39;;;;;;;4.20;1.08;;;10.50;99.90;;;;;;5013294;28;20061;-81
2022/01/29 12:25:09;;;;;;;8.50;1.83;;;10.50;99.90;;;;;;5030796;28;20051;-83
2022/01/29 12:27:42;;;;;;;10.63;1.75;;;10.50;99.90;;;;;;5031158;28;20504;-80
2022/01/29 12:30:09;;;;;;;8.40;1.65;;;10.90;99.90;;;;;;5030975;28;20053;-80
2022/01/29 12:32:35;;;;;;;10.07;2.00;;;10.50;99.90;;;;;;5012981;28;20509;-80
2022/01/29 12:35:03;;;;;;;7.32;1.60;;;10.50;99.90;;;;;;5013281;28;20064;-82
2022/01/29 12:37:29;;;;;;;8.88;1.85;;;10.50;99.90;;;;;;5031104;28;20092;-80
2022/01/29 12:40:19;;;;;;;6.68;1.27;;;10.70;99.90;;;;;;5012912;28;20048;-81
2022/01/29 12:42:55;;;;;;;8.30;1.15;;;10.50;99.90;;;;;;5012717;28;20054;-80
2022/01/29 12:45:22;;;;;;;10.88;2.20;;;10.60;99.90;;;;;;5030517;28;20544;-79
2022/01/29 12:47:47;;;;;;;8.02;1.38;;;11.40;99.90;;;;;;5030995;28;20215;-78
2022/01/29 12:50:21;;;;;;;11.25;1.42;;;10.60;99.90;;;;;;5030753;28;20128;-81
2022/01/29 12:52:47;;;;;;;11.07;1.75;;;10.60;99.90;;;;;;5030893;28;20448;-79
2022/01/29 12:55:13;;;;;;;10.60;2.47;;;11.40;99.90;;;;;;5030965;28;20505;-80
2022/01/29 12:57:48;;;;;;;15.43;1.98;;;10.50;99.90;;;;;;5013427;28;20133;-80